| Station | Date | Time | Temp (°F) | RH (%) | Dew Pt (°F) | Wind Dir (°) | Wind Spd (mph) | Wind Gust (mph) | Solar Rad (W/m2) | Pressure (mb) | Daily Min Temp (°F) | Daily Max Temp (°F) | Daily Max Wind (mph) | Daily Rain (In) | Yest MinT (°F) | Yest MaxT (°F) | Yest MaxGst (mph) | Yest Precip (In) | MinBV Day (V) |
|---|---|---|---|---|---|---|---|---|---|---|---|---|---|---|---|---|---|---|---|
| MWA Office | 5/5/26 | 1445 | 63.5 2.1 | 38 0 | 37.7 1.7 | SW | 225 | 10.1 5.8 | 18.8 12.7 | 897 59 | 1,010.6 1.1 | 47.8 0.1 | 64.5 1.6 | 23.0 9.4 | 0.00 | 48.0 | 62.9 | 32.4 | 0.00 | 12.5 0.1 |
| MWA OPS | 5/5/26 | 1445 | 61.1 1.8 | 45 1 | 39.7 1.0 | SW | 218 | 12.4 2.6 | 19.3 9.2 | 810 50 | 1,011.1 1.2 | 47.0 0.5 | 62.3 1.4 | 24.6 7.4 | 0.00 | 47.4 | 60.9 | 32.0 | 0.00 | 12.7 0.0 |
| LV-PS | 5/5/26 | 1445 | 64.6 4.0 | 31 8 | 33.5 4.2 | WNW | 285 | 10.9 1.4 | 21.9 0.2 | 792 115 | 1,009.2 1.8 | 47.0 2.9 | 65.6 4.4 | 28.1 1.1 | 0.00 | 50.0 | 69.9 | 28.5 | 0.00 | 12.7 0.1 |
| JV-PS | 5/5/26 | 1445 | 65.2 1.6 | 29 3 | 32.4 1.7 | NW | 320 | 9.6 2.6 | 20.6 5.0 | 879 100 | 1,009.0 0.4 | 46.8 4.3 | 66.9 1.2 | 21.3 2.2 | 0.00 | 51.1 | 68.8 | 27.8 | 0.00 | 12.9 0.0 |
| BDVWA | 5/5/26 | 1445 | 59.5 4.3 | 39 5 | 34.6 0.3 | S | 187 | 3.9 5.6 | 10.3 8.3 | 366 506 | 1,009.6 1.5 | 41.4 5.5 | 60.7 4.5 | 15.1 5.1 | 0.00 | 46.5 | 66.0 | 20.2 | 0.00 | 12.8 0.1 |
| Newberry Springs | 5/5/26 | 1445 | 71.7 0.7 | 29 0 | 37.5 0.2 | N | 354 | 7.5 8.7 | 16.9 9.9 | 994 45 | 1,008.7 0.2 | 54.4 2.9 | 72.8 0.7 | 30.9 0.4 | 0.00 | 57.4 | 73.6 | 34.8 | 0.00 | 12.8 0.0 |
| Pinon Hills | 5/5/26 | 1445 | 52.7 1.4 | 50 9 | 34.6 3.8 | NW | 322 | 9.9 5.2 | 19.5 14.2 | 239 522 | 1,010.9 0.8 | 38.7 1.9 | 54.9 2.0 | 21.5 13.4 | 0.00 | 36.8 | 56.9 | 34.8 | 0.00 | 12.8 0.0 |
| Helendale | 5/5/26 | 1445 | 64.8 3.2 | 41 9 | 40.7 3.4 | S | 182 | 11.4 2.2 | 21.3 11.0 | 253 497 | 1,009.6 0.3 | 46.6 1.5 | 68.0 1.6 | 24.6 13.6 | 0.00 | 48.2 | 69.7 | 38.1 | 0.00 | 12.7 0.0 |
| Lenwood | 5/5/26 | 1445 | 67.9 1.2 | 34 6 | 38.7 4.2 | SW | 216 | 13.0 0.2 | 25.6 3.3 | 624 170 | 1,009.0 0.0 | 48.9 1.6 | 70.2 0.3 | 25.6 3.3 | 0.00 | 50.5 | 70.6 | 30.5 | 0.00 | 12.7 0.0 |
| Oak Hills | 5/5/26 | 1330 | 53.6 0.1 | 63 6 | 41.3 2.5 | S | 178 | 7.3 3.4 | 18.0 12.5 | 858 147 | 1,012.2 0.2 | 41.5 1.3 | 53.7 0.8 | 22.1 8.3 | 0.00 | 40.2 | 56.1 | 30.5 | 0.00 | 12.9 0.0 |
| Pipes Wash Canyon | 5/5/26 | 1445 | 56.6 4.4 | 44 8 | 35.0 0.9 | ESE | 120 | 3.4 0.9 | 10.7 2.2 | 505 333 | 1,009.0 1.7 | 37.8 5.9 | 57.4 4.0 | 13.6 4.4 | 0.00 | 40.0 | 63.0 | 18.0 | 0.00 | 12.8 0.0 |
| Max | 71.7 | 63 | 41.3 | - | 13.0 | 25.6 | 994 | 1,012.2 | 54.4 | 72.8 | 30.9 | 0.00 | 57.4 | 73.6 | 38.1 | 0.00 | 12.9 | ||
| Avg | 61.9 | 40 | 36.9 | - | 9.0 | 18.5 | 656 | 1,009.9 | - | - | - | - | - | - | - | - | - | ||
| Min | 52.7 | 29 | 32.4 | - | 3.4 | 10.3 | 239 | 1,008.7 | 37.8 | 53.7 | 13.6 | 0.00 | 36.8 | 56.1 | 18.0 | 0.00 | 12.5 |
| Station | Date | Time | Latest Rain (In) | Daily Rain (In) | Yest Precip (In) | Month Precip (In) | Season Precip (In) | Daily ETo (in) | Yest ETo (In) | 7 Day ETo (in) |
|---|---|---|---|---|---|---|---|---|---|---|
| MWA Office | 5/5/26 | 1445 | 0.00 | 0.00 | 0.00 | 0.00 | 4.30 | 0.095 | 0.19 | 1.59 |
| MWA OPS | 5/5/26 | 1445 | 0.00 | 0.00 | 0.00 | 0.00 | 9.32 | 0.095 | 0.18 | 1.62 |
| LV-PS | 5/5/26 | 1445 | 0.00 | 0.00 | 0.00 | 0.00 | 3.63 | 0.123 | 0.23 | 1.76 |
| JV-PS | 5/5/26 | 1445 | 0.00 | 0.00 | 0.00 | 0.00 | 6.38 | 0.101 | 0.22 | 1.82 |
| BDVWA | 5/5/26 | 1445 | 0.00 | 0.00 | 0.00 | 0.00 | 6.35 | 0.084 | 0.18 | 1.82 |
| Newberry Springs | 5/5/26 | 1445 | 0.00 | 0.00 | 0.00 | 0.00 | 2.70 | 0.145 | 0.28 | 1.94 |
| Pinon Hills | 5/5/26 | 1445 | 0.00 | 0.00 | 0.00 | 0.00 | 15.51 | 0.073 | 0.17 | 1.54 |
| Helendale | 5/5/26 | 1445 | 0.00 | 0.00 | 0.00 | 0.00 | 5.55 | 0.112 | 0.24 | 1.75 |
| Lenwood | 5/5/26 | 1445 | 0.00 | 0.00 | 0.00 | 0.00 | 4.24 | 0.110 | 0.25 | 1.82 |
| Oak Hills | 5/5/26 | 1330 | 0.00 | 0.00 | 0.00 | 0.00 | 14.72 | 0.060 | 0.14 | 1.41 |
| Pipes Wash Canyon | 5/5/26 | 1445 | 0.00 | 0.00 | 0.00 | 0.00 | 13.92 | 0.076 | 0.16 | 1.56 |
| Max | 0.00 | 0.00 | 0.00 | 0.00 | 15.51 | 0.145 | 0.28 | 1.94 | ||
| Avg | 0.00 | - | - | - | - | - | - | - | ||
| Min | 0.00 | 0.00 | 0.00 | 0.00 | 2.70 | 0.060 | 0.14 | 1.41 |